createdAt,value
2022-08-05T00:00:52.368Z,24.73
2022-08-05T00:01:52.280Z,24.81
2022-08-05T00:02:52.465Z,24.70
2022-08-05T00:03:52.233Z,24.65
2022-08-05T00:04:55.324Z,24.66
2022-08-05T00:06:05.388Z,24.66
2022-08-05T00:06:53.214Z,24.66
2022-08-05T00:07:59.957Z,24.60
2022-08-05T00:08:52.190Z,24.55
2022-08-05T00:09:52.220Z,24.58
2022-08-05T00:10:52.182Z,24.50
2022-08-05T00:11:55.724Z,24.50
2022-08-05T00:12:56.388Z,24.40
2022-08-05T00:13:53.204Z,24.43
2022-08-05T00:14:52.149Z,24.40
2022-08-05T00:15:55.669Z,24.48
2022-08-05T00:16:53.874Z,24.51
2022-08-05T00:17:52.155Z,24.42
2022-08-05T00:18:52.132Z,24.55
2022-08-05T00:20:02.366Z,24.61
2022-08-05T00:20:53.121Z,24.53
2022-08-05T00:21:52.109Z,24.66
2022-08-05T00:22:55.287Z,24.58
2022-08-05T00:24:05.070Z,24.61
2022-08-05T00:24:55.187Z,24.68
2022-08-05T00:25:52.076Z,24.54
2022-08-05T00:26:52.999Z,24.60
2022-08-05T00:27:52.059Z,24.54
2022-08-05T00:28:52.052Z,24.57
2022-08-05T00:29:52.076Z,24.45
2022-08-05T00:30:53.657Z,24.54
2022-08-05T00:32:10.265Z,24.43
2022-08-05T00:32:53.025Z,24.50
2022-08-05T00:34:53.952Z,24.42
2022-08-05T00:35:05.525Z,24.47
2022-08-05T00:36:16.619Z,24.50
2022-08-05T00:37:11.837Z,24.48
2022-08-05T00:37:54.211Z,24.57
2022-08-05T00:38:51.977Z,24.51
2022-08-05T00:39:58.089Z,24.55
2022-08-05T00:40:53.274Z,24.57
2022-08-05T00:41:55.464Z,24.51
2022-08-05T00:42:51.977Z,24.58
2022-08-05T00:43:51.959Z,24.48
2022-08-05T00:44:51.949Z,24.53
2022-08-05T00:45:51.934Z,24.61
2022-08-05T00:46:54.244Z,24.65
2022-08-05T00:47:56.434Z,24.58
2022-08-05T00:48:51.916Z,24.60
2022-08-05T00:49:52.010Z,24.55
2022-08-05T00:50:51.901Z,24.57
2022-08-05T00:51:52.403Z,24.65
2022-08-05T00:52:51.884Z,24.68
2022-08-05T00:54:02.304Z,24.66
2022-08-05T00:54:52.881Z,24.58
2022-08-05T00:55:51.890Z,24.63
2022-08-05T00:56:51.965Z,24.63
2022-08-05T00:57:58.621Z,24.61
2022-08-05T00:58:51.862Z,24.65
2022-08-05T00:59:51.850Z,24.60
2022-08-05T01:00:51.854Z,24.58
2022-08-05T01:01:52.030Z,24.47
2022-08-05T01:02:51.817Z,24.47
2022-08-05T01:03:51.817Z,24.51
2022-08-05T01:04:51.813Z,24.40
2022-08-05T01:05:51.789Z,24.39
2022-08-05T01:06:52.350Z,24.18
2022-08-05T01:08:30.377Z,24.33
2022-08-05T01:08:52.771Z,24.18
2022-08-05T01:09:55.787Z,24.18
2022-08-05T01:10:52.713Z,24.17
2022-08-05T01:11:51.830Z,24.24
2022-08-05T01:12:54.263Z,24.26
2022-08-05T01:13:58.642Z,24.16
2022-08-05T01:14:52.736Z,24.14
2022-08-05T01:15:51.720Z,24.17
2022-08-05T01:16:52.343Z,24.11
2022-08-05T01:17:53.615Z,24.14
2022-08-05T01:18:56.451Z,24.06
2022-08-05T01:20:02.306Z,23.93
2022-08-05T01:20:52.692Z,24.02
2022-08-05T01:21:51.761Z,24.02
2022-08-05T01:22:51.676Z,24.01
2022-08-05T01:23:53.212Z,24.01
2022-08-05T01:24:51.673Z,24.03
2022-08-05T01:25:53.345Z,24.05
2022-08-05T01:26:51.657Z,24.03
2022-08-05T01:27:55.973Z,23.95
2022-08-05T01:28:52.639Z,23.86
2022-08-05T01:29:51.796Z,23.83
2022-08-05T01:30:55.205Z,23.91
2022-08-05T01:31:51.635Z,23.88
2022-08-05T01:32:51.629Z,23.80
2022-08-05T01:33:51.873Z,23.83
2022-08-05T01:34:51.597Z,23.63
2022-08-05T01:35:53.433Z,23.68
2022-08-05T01:36:51.578Z,23.58
2022-08-05T01:37:51.578Z,23.61
2022-08-05T01:38:51.569Z,23.59
2022-08-05T01:39:51.626Z,23.65
2022-08-05T01:40:51.557Z,23.58
2022-08-05T01:41:51.556Z,23.71
2022-08-05T01:42:51.550Z,23.76
2022-08-05T01:43:51.556Z,23.80
2022-08-05T01:44:54.060Z,23.83
2022-08-05T01:45:56.659Z,23.80
2022-08-05T01:46:52.521Z,23.83
2022-08-05T01:47:54.426Z,23.80
2022-08-05T01:48:51.528Z,23.71
2022-08-05T01:50:01.373Z,23.78
2022-08-05T01:50:52.483Z,23.76
2022-08-05T01:51:51.902Z,23.69
2022-08-05T01:52:51.491Z,23.76
2022-08-05T01:53:57.684Z,23.69
2022-08-05T01:54:52.089Z,23.63
2022-08-05T01:55:51.461Z,23.58
2022-08-05T01:58:14.693Z,23.55
2022-08-05T01:58:18.794Z,23.51
2022-08-05T01:58:52.536Z,23.65
2022-08-05T01:59:51.479Z,23.58
2022-08-05T02:00:51.418Z,23.44
2022-08-05T02:01:51.487Z,23.41
2022-08-05T02:02:54.550Z,23.36
2022-08-05T02:03:51.392Z,23.25
2022-08-05T02:04:51.390Z,23.27
2022-08-05T02:05:51.399Z,23.12
2022-08-05T02:06:51.396Z,23.06
2022-08-05T02:08:00.122Z,23.10
2022-08-05T02:08:58.221Z,23.13
2022-08-05T02:09:52.361Z,23.10
2022-08-05T02:10:51.345Z,23.09
2022-08-05T02:11:52.620Z,23.17
2022-08-05T02:12:51.357Z,23.02
2022-08-05T02:13:53.958Z,23.10
2022-08-05T02:14:51.314Z,23.03
2022-08-05T02:15:51.320Z,22.99
2022-08-05T02:16:52.161Z,22.99
2022-08-05T02:18:28.520Z,22.99
2022-08-05T02:18:52.312Z,22.98
2022-08-05T02:19:51.290Z,22.98
2022-08-05T02:20:51.280Z,23.00
2022-08-05T02:21:51.268Z,23.12
2022-08-05T02:22:51.289Z,23.08
2022-08-05T02:23:51.271Z,23.06
2022-08-05T02:24:51.501Z,23.08
2022-08-05T02:25:51.256Z,23.13
2022-08-05T02:26:53.978Z,23.03
2022-08-05T02:27:59.497Z,22.68
2022-08-05T02:28:52.225Z,22.43
2022-08-05T02:29:59.993Z,22.26
2022-08-05T02:30:54.724Z,22.28
2022-08-05T02:31:51.209Z,22.00
2022-08-05T02:32:51.198Z,21.85
2022-08-05T02:33:57.368Z,21.82
2022-08-05T02:34:54.538Z,21.73
2022-08-05T02:35:58.934Z,21.52
2022-08-05T02:36:52.190Z,21.54
2022-08-05T02:37:54.068Z,21.40
2022-08-05T02:38:53.183Z,21.45
2022-08-05T02:39:51.762Z,21.33
2022-08-05T02:40:51.141Z,21.17
2022-08-05T02:41:58.112Z,21.09
2022-08-05T02:42:52.847Z,21.11
2022-08-05T02:44:06.732Z,21.06
2022-08-05T02:44:52.130Z,21.15
2022-08-05T02:45:52.705Z,21.12
2022-08-05T02:46:58.945Z,21.07
2022-08-05T02:48:07.282Z,21.09
2022-08-05T02:48:52.116Z,21.00
2022-08-05T02:49:51.079Z,20.87
2022-08-05T02:50:51.083Z,20.95
2022-08-05T02:52:01.131Z,20.90
2022-08-05T02:52:52.053Z,20.99
2022-08-05T02:53:54.817Z,20.88
2022-08-05T02:54:52.275Z,20.92
2022-08-05T02:55:54.507Z,20.90
2022-08-05T02:56:51.036Z,21.03
2022-08-05T02:58:10.506Z,21.03
2022-08-05T02:58:52.682Z,20.96
2022-08-05T02:59:52.074Z,20.96
2022-08-05T03:00:51.004Z,20.88
2022-08-05T03:01:51.044Z,20.88
2022-08-05T03:02:51.016Z,20.92
2022-08-05T03:04:02.748Z,20.84
2022-08-05T03:04:53.305Z,20.75
2022-08-05T03:06:53.999Z,20.65
2022-08-05T03:06:54.058Z,20.60
2022-08-05T03:08:07.066Z,20.72
2022-08-05T03:08:52.157Z,20.82
2022-08-05T03:09:51.971Z,20.78
2022-08-05T03:11:55.692Z,20.84
2022-08-05T03:11:57.107Z,20.78
2022-08-05T03:12:52.114Z,20.90
2022-08-05T03:13:51.009Z,20.92
2022-08-05T03:14:51.920Z,20.82
2022-08-05T03:15:50.902Z,20.96
2022-08-05T03:16:53.313Z,20.84
2022-08-05T03:17:54.002Z,20.80
2022-08-05T03:18:50.877Z,20.80
2022-08-05T03:19:50.870Z,20.63
2022-08-05T03:20:50.872Z,20.74
2022-08-05T03:21:50.882Z,20.67
2022-08-05T03:22:50.856Z,20.59
2022-08-05T03:23:50.832Z,20.74
2022-08-05T03:24:52.119Z,20.69
2022-08-05T03:26:30.072Z,20.60
2022-08-05T03:26:51.852Z,20.63
2022-08-05T03:27:59.755Z,20.50
2022-08-05T03:28:51.795Z,20.51
2022-08-05T03:30:07.208Z,20.56
2022-08-05T03:30:51.786Z,20.44
2022-08-05T03:31:55.989Z,20.43
2022-08-05T03:32:51.781Z,20.51
2022-08-05T03:33:52.885Z,20.43
2022-08-05T03:34:51.623Z,20.39
2022-08-05T03:35:50.748Z,20.37
2022-08-05T03:36:50.745Z,20.51
2022-08-05T03:37:50.752Z,20.51
2022-08-05T03:38:52.524Z,20.55
2022-08-05T03:39:59.040Z,20.55
2022-08-05T03:40:51.822Z,20.62
2022-08-05T03:41:52.529Z,20.69
2022-08-05T03:42:51.918Z,20.63
2022-08-05T03:44:09.702Z,20.63
2022-08-05T03:44:51.697Z,20.59
2022-08-05T03:45:57.970Z,20.48
2022-08-05T03:46:51.691Z,20.48
2022-08-05T03:47:50.684Z,20.51
2022-08-05T03:48:50.672Z,20.55
2022-08-05T03:49:51.303Z,20.52
2022-08-05T03:50:50.682Z,20.63
2022-08-05T03:52:49.231Z,20.74
2022-08-05T03:54:59.258Z,20.62
2022-08-05T03:55:00.535Z,20.75
2022-08-05T03:55:53.543Z,20.69
2022-08-05T03:56:10.322Z,20.77
2022-08-05T03:56:51.616Z,20.67
2022-08-05T03:57:50.689Z,20.72
2022-08-05T03:58:51.142Z,20.59
2022-08-05T03:59:54.864Z,20.70
2022-08-05T04:00:51.678Z,20.88
2022-08-05T04:01:50.639Z,20.93
2022-08-05T04:02:57.928Z,20.92
2022-08-05T04:04:10.259Z,20.88
2022-08-05T04:04:51.555Z,21.03
2022-08-05T04:05:50.577Z,21.03
2022-08-05T04:06:51.283Z,21.12
2022-08-05T04:07:57.389Z,21.24
2022-08-05T04:08:51.536Z,21.36
2022-08-05T04:09:53.676Z,21.50
2022-08-05T04:10:50.549Z,21.35
2022-08-05T04:11:52.718Z,21.32
2022-08-05T04:12:50.525Z,21.30
2022-08-05T04:13:53.606Z,21.29
2022-08-05T04:14:50.512Z,21.21
2022-08-05T04:16:03.004Z,21.25
2022-08-05T04:16:51.466Z,21.36
2022-08-05T04:17:56.717Z,21.37
2022-08-05T04:18:54.132Z,21.40
2022-08-05T04:19:54.231Z,21.42
2022-08-05T04:20:50.519Z,21.36
2022-08-05T04:22:09.301Z,21.43
2022-08-05T04:22:51.431Z,21.36
2022-08-05T04:24:05.676Z,21.43
2022-08-05T04:24:52.553Z,21.39
2022-08-05T04:26:00.686Z,21.37
2022-08-05T04:26:51.428Z,21.42
2022-08-05T04:27:57.200Z,21.33
2022-08-05T04:28:51.387Z,21.36
2022-08-05T04:29:50.402Z,21.30
2022-08-05T04:30:50.372Z,21.30
2022-08-05T04:31:50.376Z,21.46
2022-08-05T04:32:50.392Z,21.32
2022-08-05T04:34:18.751Z,21.20
2022-08-05T04:34:51.345Z,21.15
2022-08-05T04:36:15.570Z,21.12
2022-08-05T04:36:51.327Z,21.14
2022-08-05T04:38:02.038Z,21.18
2022-08-05T04:38:51.319Z,21.18
2022-08-05T04:39:52.973Z,21.18
2022-08-05T04:40:51.320Z,21.14
2022-08-05T04:41:51.020Z,21.22
2022-08-05T04:42:50.302Z,21.29
2022-08-05T04:43:52.892Z,21.25
2022-08-05T04:44:50.277Z,21.36
2022-08-05T04:45:54.930Z,21.37
2022-08-05T04:46:51.286Z,21.20
2022-08-05T04:47:50.281Z,21.14
2022-08-05T04:48:51.693Z,21.15
2022-08-05T04:50:02.556Z,21.25
2022-08-05T04:51:02.949Z,21.17
2022-08-05T04:51:51.259Z,21.17
2022-08-05T04:52:51.222Z,21.20
2022-08-05T04:53:50.240Z,21.17
2022-08-05T04:54:50.229Z,21.17
2022-08-05T04:56:14.550Z,21.06
2022-08-05T04:56:51.214Z,20.88
2022-08-05T04:57:51.650Z,20.87
2022-08-05T04:58:50.174Z,20.95
2022-08-05T04:59:50.172Z,20.75
2022-08-05T05:00:50.864Z,20.80
2022-08-05T05:02:06.812Z,20.70
2022-08-05T05:02:51.240Z,20.63
2022-08-05T05:03:50.157Z,20.78
2022-08-05T05:04:51.389Z,20.74
2022-08-05T05:06:39.382Z,20.77
2022-08-05T05:06:57.393Z,20.65
2022-08-05T05:07:56.261Z,20.72
2022-08-05T05:08:51.098Z,20.66
2022-08-05T05:09:50.090Z,20.62
2022-08-05T05:10:56.183Z,20.65
2022-08-05T05:11:54.445Z,20.72
2022-08-05T05:12:50.600Z,20.69
2022-08-05T05:13:50.075Z,20.70
2022-08-05T05:14:50.764Z,20.81
2022-08-05T05:15:57.608Z,20.85
2022-08-05T05:16:51.039Z,20.88
2022-08-05T05:17:56.764Z,20.93
2022-08-05T05:19:16.393Z,20.97
2022-08-05T05:19:51.045Z,21.07
2022-08-05T05:20:50.017Z,21.00
2022-08-05T05:21:50.044Z,21.06
2022-08-05T05:22:50.011Z,21.15
2022-08-05T05:24:04.075Z,21.14
2022-08-05T05:24:57.758Z,21.17
2022-08-05T05:25:50.002Z,21.15
2022-08-05T05:26:51.795Z,21.24
2022-08-05T05:27:54.049Z,21.27
2022-08-05T05:28:50.969Z,21.36
2022-08-05T05:30:04.037Z,21.39
2022-08-05T05:30:50.958Z,21.43
2022-08-05T05:31:49.956Z,21.50
2022-08-05T05:32:49.923Z,21.42
2022-08-05T05:33:59.593Z,21.43
2022-08-05T05:34:52.486Z,21.48
2022-08-05T05:35:49.901Z,21.46
2022-08-05T05:36:51.219Z,21.36
2022-08-05T05:37:59.726Z,21.17
2022-08-05T05:38:50.924Z,21.18
2022-08-05T05:39:49.991Z,21.20
2022-08-05T05:40:51.853Z,21.14
2022-08-05T05:41:54.041Z,21.20
2022-08-05T05:42:49.860Z,21.14
2022-08-05T05:43:58.284Z,21.05
2022-08-05T05:44:49.866Z,20.96
2022-08-05T05:45:49.831Z,20.84
2022-08-05T05:46:49.814Z,20.88
2022-08-05T05:48:05.567Z,20.81
2022-08-05T05:48:50.820Z,20.81
2022-08-05T05:49:56.593Z,20.77
2022-08-05T05:50:49.820Z,20.67
2022-08-05T05:51:50.797Z,20.88
2022-08-05T05:52:49.772Z,20.78
2022-08-05T05:53:57.482Z,20.95
2022-08-05T05:54:51.327Z,20.93
2022-08-05T05:55:52.096Z,20.99
2022-08-05T05:56:50.759Z,20.96
2022-08-05T05:57:52.607Z,21.07
2022-08-05T05:58:49.738Z,20.92
2022-08-05T05:59:49.747Z,20.90
2022-08-05T06:00:49.753Z,20.78
2022-08-05T06:01:57.922Z,20.80
2022-08-05T06:02:49.741Z,20.81
2022-08-05T06:04:01.100Z,20.88
2022-08-05T06:04:50.760Z,20.77
2022-08-05T06:05:54.278Z,20.75
2022-08-05T06:06:50.685Z,20.78
2022-08-05T06:07:57.884Z,20.92
2022-08-05T06:08:50.717Z,20.97
2022-08-05T06:10:04.503Z,20.99
2022-08-05T06:10:52.801Z,21.03
2022-08-05T06:12:01.054Z,21.11
2022-08-05T06:12:50.647Z,20.97
2022-08-05T06:13:53.792Z,21.05
2022-08-05T06:14:49.645Z,21.02
2022-08-05T06:16:29.496Z,21.00
2022-08-05T06:16:50.615Z,20.99
2022-08-05T06:17:52.604Z,21.02
2022-08-05T06:18:49.597Z,21.06
2022-08-05T06:19:57.081Z,21.07
2022-08-05T06:20:50.594Z,21.21
2022-08-05T06:21:50.020Z,21.20
2022-08-05T06:22:49.559Z,21.30
2022-08-05T06:23:49.825Z,21.33
2022-08-05T06:24:49.574Z,21.37
2022-08-05T06:26:12.401Z,21.37
2022-08-05T06:26:52.294Z,21.30
2022-08-05T06:28:11.644Z,21.37
2022-08-05T06:28:50.533Z,21.45
2022-08-05T06:30:04.155Z,21.45
2022-08-05T06:30:50.513Z,21.35
2022-08-05T06:31:49.518Z,21.50
2022-08-05T06:32:50.855Z,21.45
2022-08-05T06:34:06.956Z,21.51
2022-08-05T06:34:53.622Z,21.55
2022-08-05T06:36:03.979Z,21.67
2022-08-05T06:36:58.286Z,21.72
2022-08-05T06:37:57.937Z,21.82
2022-08-05T06:38:50.448Z,21.82
2022-08-05T06:39:49.443Z,21.89
2022-08-05T06:40:49.477Z,22.06
2022-08-05T06:41:49.435Z,22.13
2022-08-05T06:42:52.361Z,22.60
2022-08-05T06:43:59.187Z,23.17
2022-08-05T06:44:50.419Z,23.73
2022-08-05T06:46:03.603Z,25.14
2022-08-05T06:46:51.097Z,25.47
2022-08-05T06:48:37.133Z,25.68
2022-08-05T06:48:56.035Z,25.81
2022-08-05T06:50:01.385Z,25.85
2022-08-05T06:50:50.389Z,25.87
2022-08-05T06:51:49.379Z,25.87
2022-08-05T06:52:58.672Z,26.03
2022-08-05T06:53:53.665Z,25.93
2022-08-05T06:54:52.130Z,25.60
2022-08-05T06:55:49.315Z,24.99
2022-08-05T06:56:54.924Z,24.80
2022-08-05T06:58:02.583Z,24.39
2022-08-05T06:58:49.297Z,24.30
2022-08-05T06:59:56.469Z,24.08
2022-08-05T07:00:50.410Z,23.92
2022-08-05T07:01:53.034Z,24.01
2022-08-05T07:02:53.949Z,24.65
2022-08-05T07:03:49.270Z,25.46
2022-08-05T07:04:49.245Z,25.93
2022-08-05T07:05:49.246Z,26.66
2022-08-05T07:06:50.395Z,26.97
2022-08-05T07:07:49.228Z,27.29
2022-08-05T07:08:54.500Z,27.10
2022-08-05T07:09:58.202Z,27.22
2022-08-05T07:10:52.832Z,26.84
2022-08-05T07:11:51.500Z,26.92
2022-08-05T07:12:49.334Z,26.93
2022-08-05T07:13:57.568Z,26.78
2022-08-05T07:14:49.178Z,26.71
2022-08-05T07:16:01.635Z,26.47
2022-08-05T07:18:01.613Z,26.21
2022-08-05T07:18:02.275Z,26.05
2022-08-05T07:18:50.155Z,26.00
2022-08-05T07:20:49.135Z,25.70
2022-08-05T07:22:00.361Z,25.31
2022-08-05T07:22:50.157Z,25.10
2022-08-05T07:23:50.130Z,25.03
2022-08-05T07:24:52.413Z,24.99
2022-08-05T07:25:55.102Z,24.84
2022-08-05T07:26:50.102Z,25.06
2022-08-05T07:27:58.180Z,24.85
2022-08-05T07:28:50.083Z,24.80
2022-08-05T07:30:22.801Z,24.74
2022-08-05T07:30:50.372Z,24.60
2022-08-05T07:31:54.723Z,24.65
2022-08-05T07:32:50.944Z,24.39
2022-08-05T07:33:49.045Z,24.33
2022-08-05T07:34:49.049Z,24.23
2022-08-05T07:36:02.653Z,24.17
2022-08-05T07:36:51.309Z,24.16
2022-08-05T07:37:49.027Z,24.18
2022-08-05T07:38:49.155Z,24.32
2022-08-05T07:40:04.544Z,24.20
2022-08-05T07:40:55.727Z,24.30
2022-08-05T07:42:13.475Z,24.43
2022-08-05T07:42:49.981Z,24.77
2022-08-05T07:43:48.996Z,24.89
2022-08-05T07:44:48.975Z,25.08
2022-08-05T07:45:57.098Z,25.22
2022-08-05T07:46:50.448Z,25.47
2022-08-05T07:47:48.953Z,25.38
2022-08-05T07:49:01.910Z,25.31
2022-08-05T07:49:54.416Z,25.29
2022-08-05T07:50:49.934Z,25.22
2022-08-05T07:51:53.596Z,25.13
2022-08-05T07:52:49.917Z,25.03
2022-08-05T07:53:50.462Z,24.92
2022-08-05T07:54:49.132Z,24.84
2022-08-05T07:56:06.159Z,24.68
2022-08-05T07:57:01.841Z,24.70
2022-08-05T07:58:01.999Z,24.70
2022-08-05T07:58:58.604Z,24.61
2022-08-05T07:59:49.192Z,24.48
2022-08-05T08:00:48.873Z,24.38
2022-08-05T08:01:52.147Z,24.51
2022-08-05T08:03:14.525Z,24.39
2022-08-05T08:03:51.293Z,24.32
2022-08-05T08:04:49.598Z,24.26
2022-08-05T08:05:49.579Z,24.08
2022-08-05T08:06:48.823Z,23.96
2022-08-05T08:07:58.963Z,23.98
2022-08-05T08:08:48.796Z,23.91
2022-08-05T08:09:48.815Z,23.83
2022-08-05T08:10:49.174Z,23.87
2022-08-05T08:11:54.190Z,23.88
2022-08-05T08:12:49.404Z,23.83
2022-08-05T08:14:00.619Z,23.84
2022-08-05T08:14:49.769Z,23.96
2022-08-05T08:16:50.084Z,24.03
2022-08-05T08:16:50.880Z,24.03
2022-08-05T08:17:52.452Z,24.11
2022-08-05T08:18:50.273Z,24.20
2022-08-05T08:20:21.790Z,24.29
2022-08-05T08:21:03.231Z,24.48
2022-08-05T08:21:49.705Z,24.48
2022-08-05T08:22:48.710Z,24.70
2022-08-05T08:24:01.569Z,24.73
2022-08-05T08:24:52.008Z,24.81
2022-08-05T08:26:00.870Z,24.84
2022-08-05T08:26:49.676Z,25.04
2022-08-05T08:27:51.384Z,25.29
2022-08-05T08:28:59.555Z,25.29
2022-08-05T08:30:05.937Z,25.38
2022-08-05T08:30:50.136Z,25.23
2022-08-05T08:31:48.724Z,25.40
2022-08-05T08:32:48.624Z,25.32
2022-08-05T08:33:51.690Z,25.35
2022-08-05T08:34:48.620Z,25.18
2022-08-05T08:35:52.295Z,24.99
2022-08-05T08:36:54.651Z,24.95
2022-08-05T08:37:53.466Z,24.88
2022-08-05T08:38:53.424Z,24.88
2022-08-05T08:39:49.878Z,24.66
2022-08-05T08:40:51.759Z,24.74
2022-08-05T08:41:52.548Z,24.78
2022-08-05T08:42:52.337Z,24.85
2022-08-05T08:45:20.946Z,24.95
2022-08-05T08:45:24.725Z,24.84
2022-08-05T08:45:48.549Z,24.98
2022-08-05T08:46:48.550Z,24.88
2022-08-05T08:48:12.428Z,24.93
2022-08-05T08:49:04.175Z,24.92
2022-08-05T08:50:14.609Z,24.98
2022-08-05T08:51:03.208Z,25.17
2022-08-05T08:52:06.098Z,25.17
2022-08-05T08:52:51.780Z,25.17
2022-08-05T08:53:48.492Z,25.31
2022-08-05T08:54:48.474Z,25.38
2022-08-05T08:56:03.440Z,25.46
2022-08-05T08:56:49.565Z,25.80
2022-08-05T08:57:57.999Z,25.95
2022-08-05T08:58:49.445Z,26.23
2022-08-05T08:59:49.034Z,26.26
2022-08-05T09:00:48.513Z,26.53
2022-08-05T09:01:57.036Z,26.56
2022-08-05T09:02:49.423Z,26.71
2022-08-05T09:03:54.458Z,26.59
2022-08-05T09:05:16.416Z,26.26
2022-08-05T09:06:08.826Z,26.36
2022-08-05T09:06:49.858Z,26.34
2022-08-05T09:07:57.386Z,26.40
2022-08-05T09:08:49.371Z,26.22
2022-08-05T09:09:48.384Z,25.95
2022-08-05T09:10:48.357Z,25.95
2022-08-05T09:11:53.092Z,25.87
2022-08-05T09:12:51.019Z,25.88
2022-08-05T09:14:10.045Z,26.03
2022-08-05T09:14:57.070Z,25.80
2022-08-05T09:15:49.343Z,25.59
2022-08-05T09:16:48.942Z,25.60
2022-08-05T09:17:49.378Z,25.55
2022-08-05T09:18:48.317Z,25.58
2022-08-05T09:20:01.520Z,25.59
2022-08-05T09:20:49.292Z,25.58
2022-08-05T09:22:30.769Z,25.75
2022-08-05T09:22:51.917Z,25.78
2022-08-05T09:23:48.286Z,25.72
2022-08-05T09:24:48.269Z,25.72
2022-08-05T09:26:02.702Z,25.73
2022-08-05T09:26:51.743Z,25.70
2022-08-05T09:28:05.292Z,25.84
2022-08-05T09:28:49.236Z,25.78
2022-08-05T09:29:48.276Z,25.83
2022-08-05T09:30:48.224Z,25.91
2022-08-05T09:32:42.205Z,25.99
2022-08-05T09:32:49.229Z,26.09
2022-08-05T09:33:48.207Z,26.00
2022-08-05T09:34:48.202Z,26.07
2022-08-05T09:35:48.194Z,26.26
2022-08-05T09:36:55.910Z,26.33
2022-08-05T09:38:13.031Z,26.36
2022-08-05T09:38:49.179Z,26.13
2022-08-05T09:39:52.370Z,25.96
2022-08-05T09:40:52.413Z,25.95
2022-08-05T09:41:53.966Z,25.95
2022-08-05T09:42:49.132Z,25.88
2022-08-05T09:43:49.383Z,26.00
2022-08-05T09:44:49.429Z,26.05
2022-08-05T09:46:06.379Z,26.18
2022-08-05T09:46:51.811Z,26.22
2022-08-05T09:47:56.229Z,26.23
2022-08-05T09:49:06.582Z,26.41
2022-08-05T09:50:00.712Z,26.43
2022-08-05T09:50:49.095Z,26.51
2022-08-05T09:51:48.800Z,26.66
2022-08-05T09:52:48.087Z,26.70
2022-08-05T09:53:55.181Z,26.83
2022-08-05T09:54:49.053Z,26.85
2022-08-05T09:55:56.586Z,26.70
2022-08-05T09:56:51.841Z,26.65
2022-08-05T09:57:48.043Z,26.71
2022-08-05T09:58:50.266Z,26.84
2022-08-05T09:59:48.026Z,26.73
2022-08-05T10:00:48.009Z,26.71
2022-08-05T10:01:48.047Z,26.68
2022-08-05T10:02:49.073Z,26.83
2022-08-05T10:03:58.843Z,26.90
2022-08-05T10:04:48.988Z,27.07
2022-08-05T10:05:48.034Z,27.05
2022-08-05T10:06:54.633Z,27.11
2022-08-05T10:08:36.706Z,27.05
2022-08-05T10:08:50.381Z,27.02
2022-08-05T10:09:48.955Z,26.95
2022-08-05T10:10:53.916Z,27.00
2022-08-05T10:11:48.936Z,26.75
2022-08-05T10:12:49.345Z,26.84
2022-08-05T10:13:49.229Z,26.89
2022-08-05T10:14:47.924Z,26.77
2022-08-05T10:15:47.915Z,26.73
2022-08-05T10:16:52.996Z,26.52
2022-08-05T10:17:56.861Z,26.28
2022-08-05T10:18:48.914Z,26.31
2022-08-05T10:20:04.042Z,26.33
2022-08-05T10:20:48.893Z,26.45
2022-08-05T10:21:47.868Z,26.41
2022-08-05T10:22:50.681Z,26.60
2022-08-05T10:23:59.824Z,26.73
2022-08-05T10:24:48.859Z,26.83
2022-08-05T10:25:47.870Z,26.88
2022-08-05T10:26:51.493Z,26.95
2022-08-05T10:28:12.823Z,27.05
2022-08-05T10:28:48.856Z,26.99
2022-08-05T10:30:07.209Z,26.97
2022-08-05T10:32:49.379Z,26.97
2022-08-05T10:32:54.654Z,26.96
2022-08-05T10:32:59.470Z,26.89
2022-08-05T10:33:52.295Z,26.75
2022-08-05T10:34:47.785Z,26.75
2022-08-05T10:35:59.041Z,27.02
2022-08-05T10:36:47.791Z,27.05
2022-08-05T10:37:47.794Z,27.10
2022-08-05T10:38:47.752Z,27.07
2022-08-05T10:40:04.305Z,27.10
2022-08-05T10:40:48.786Z,27.21
2022-08-05T10:41:47.731Z,27.12
2022-08-05T10:42:47.721Z,27.08
2022-08-05T10:43:47.746Z,27.14
2022-08-05T10:44:47.756Z,27.18
2022-08-05T10:45:47.705Z,27.15
2022-08-05T10:46:50.613Z,27.11
2022-08-05T10:48:31.376Z,27.00
2022-08-05T10:48:57.849Z,27.00
2022-08-05T10:49:49.234Z,26.89
2022-08-05T10:50:47.676Z,26.74
2022-08-05T10:51:57.632Z,26.78
2022-08-05T10:52:49.806Z,26.95
2022-08-05T10:53:47.654Z,27.02
2022-08-05T10:54:56.914Z,27.08
2022-08-05T10:56:05.485Z,27.08
2022-08-05T10:56:49.491Z,27.27
2022-08-05T10:57:47.623Z,27.32
2022-08-05T10:58:49.436Z,27.33
2022-08-05T11:00:02.189Z,27.14
2022-08-05T11:00:47.999Z,27.17
2022-08-05T11:01:54.948Z,27.21
2022-08-05T11:02:50.465Z,27.17
2022-08-05T11:03:47.760Z,27.10
2022-08-05T11:04:47.574Z,27.07
2022-08-05T11:05:47.584Z,27.05
2022-08-05T11:06:47.559Z,27.05
2022-08-05T11:08:02.693Z,27.08
2022-08-05T11:08:48.582Z,27.10
2022-08-05T11:09:47.582Z,27.14
2022-08-05T11:10:50.401Z,27.21
2022-08-05T11:11:52.708Z,27.35
2022-08-05T11:12:50.914Z,27.45
2022-08-05T11:13:58.101Z,27.30
2022-08-05T11:15:01.381Z,27.12
2022-08-05T11:16:00.596Z,27.12
2022-08-05T11:16:57.966Z,27.10
2022-08-05T11:17:57.583Z,27.11
2022-08-05T11:18:48.495Z,27.18
2022-08-05T11:20:16.982Z,27.17
2022-08-05T11:20:48.479Z,27.20
2022-08-05T11:21:49.492Z,27.18
2022-08-05T11:22:49.955Z,27.33
2022-08-05T11:24:02.983Z,27.26
2022-08-05T11:24:50.809Z,27.14
2022-08-05T11:26:04.789Z,27.26
2022-08-05T11:26:49.746Z,27.26
2022-08-05T11:27:51.988Z,27.40
2022-08-05T11:28:48.442Z,27.29
2022-08-05T11:29:47.410Z,27.18
2022-08-05T11:30:47.418Z,27.26
2022-08-05T11:31:56.713Z,27.35
2022-08-05T11:32:48.401Z,27.26
2022-08-05T11:33:48.181Z,27.27
2022-08-05T11:34:51.331Z,27.33
2022-08-05T11:36:07.644Z,27.15
2022-08-05T11:36:52.959Z,27.17
2022-08-05T11:38:37.005Z,27.15
2022-08-05T11:38:51.241Z,27.18
2022-08-05T11:39:47.983Z,27.22
2022-08-05T11:40:47.330Z,27.17
2022-08-05T11:42:01.405Z,27.21
2022-08-05T11:42:48.358Z,27.33
2022-08-05T11:44:05.961Z,27.32
2022-08-05T11:44:53.787Z,27.35
2022-08-05T11:46:15.633Z,27.39
2022-08-05T11:47:09.897Z,27.39
2022-08-05T11:47:50.381Z,27.39
2022-08-05T11:48:48.305Z,27.49
2022-08-05T11:49:49.745Z,27.58
2022-08-05T11:50:47.265Z,27.74
2022-08-05T11:51:49.366Z,27.74
2022-08-05T11:52:48.919Z,27.75
2022-08-05T11:53:47.254Z,27.60
2022-08-05T11:54:48.458Z,27.67
2022-08-05T11:55:48.235Z,27.60
2022-08-05T11:56:50.387Z,27.70
2022-08-05T11:58:09.772Z,27.74
2022-08-05T11:58:52.805Z,27.77
2022-08-05T11:59:50.363Z,27.77
2022-08-05T12:00:47.192Z,27.59
2022-08-05T12:01:48.196Z,27.52
2022-08-05T12:02:47.229Z,27.54
2022-08-05T12:03:55.756Z,27.47
2022-08-05T12:04:59.260Z,27.52
2022-08-05T12:05:47.185Z,27.49
2022-08-05T12:06:48.915Z,27.60
2022-08-05T12:08:08.027Z,27.33
2022-08-05T12:08:50.896Z,27.08
2022-08-05T12:09:53.434Z,27.05
2022-08-05T12:10:48.857Z,27.05
2022-08-05T12:11:47.117Z,26.97
2022-08-05T12:12:59.425Z,27.12
2022-08-05T12:13:48.943Z,26.95
2022-08-05T12:14:47.220Z,26.99
2022-08-05T12:15:49.702Z,27.00
2022-08-05T12:16:47.107Z,27.00
2022-08-05T12:18:04.342Z,26.99
2022-08-05T12:18:49.523Z,27.03
2022-08-05T12:20:26.548Z,27.00
2022-08-05T12:20:48.063Z,26.96
2022-08-05T12:21:47.084Z,26.96
2022-08-05T12:22:47.052Z,26.92
2022-08-05T12:23:47.040Z,27.00
2022-08-05T12:24:49.438Z,27.10
2022-08-05T12:25:47.033Z,26.99
2022-08-05T12:26:47.023Z,27.02
2022-08-05T12:27:53.241Z,27.03
2022-08-05T12:28:48.008Z,26.99
2022-08-05T12:29:47.022Z,27.00
2022-08-05T12:30:47.997Z,27.12
2022-08-05T12:31:53.026Z,27.22
2022-08-05T12:32:50.415Z,27.25
2022-08-05T12:33:46.974Z,27.32
2022-08-05T12:34:46.967Z,27.36
2022-08-05T12:35:47.026Z,27.42
2022-08-05T12:36:46.955Z,27.36
2022-08-05T12:37:46.960Z,27.40
2022-08-05T12:38:46.940Z,27.42
2022-08-05T12:39:48.703Z,27.49
2022-08-05T12:40:46.928Z,27.48
2022-08-05T12:41:46.918Z,27.54
2022-08-05T12:42:46.924Z,27.51
2022-08-05T12:43:46.893Z,27.63
2022-08-05T12:44:47.472Z,27.59
2022-08-05T12:45:49.874Z,27.65
2022-08-05T12:46:46.880Z,27.59
2022-08-05T12:48:17.419Z,27.75
2022-08-05T12:48:47.862Z,27.80
2022-08-05T12:50:04.252Z,27.64
2022-08-05T12:50:46.850Z,27.63
2022-08-05T12:52:13.826Z,27.49
2022-08-05T12:52:47.840Z,27.54
2022-08-05T12:53:47.368Z,27.49